createdAt,value
2022-12-18T00:00:06.109Z,101972.90
2022-12-18T00:03:01.986Z,101990.39
2022-12-18T00:05:30.577Z,101997.81
2022-12-18T00:07:58.510Z,102001.45
2022-12-18T00:10:26.721Z,102003.02
2022-12-18T00:12:54.718Z,102008.71
2022-12-18T00:15:22.723Z,102006.99
2022-12-18T00:17:51.255Z,102007.34
2022-12-18T00:20:24.773Z,102007.18
2022-12-18T00:22:54.084Z,102011.67
2022-12-18T00:25:22.341Z,102009.42
2022-12-18T00:27:50.287Z,102010.27
2022-12-18T00:30:19.517Z,102009.92
2022-12-18T00:32:47.429Z,102017.20
2022-12-18T00:35:15.307Z,102018.21
2022-12-18T00:37:43.766Z,102021.17
2022-12-18T00:40:13.588Z,102027.59
2022-12-18T00:42:56.676Z,102007.17
2022-12-18T00:45:27.445Z,102031.96
2022-12-18T00:47:56.736Z,102031.66
2022-12-18T00:50:26.174Z,102030.96
2022-12-18T00:52:54.115Z,102029.60
2022-12-18T00:55:21.928Z,102027.17
2022-12-18T00:57:52.957Z,102035.14
2022-12-18T01:00:21.662Z,102042.05
2022-12-18T01:02:49.697Z,102048.42
2022-12-18T01:05:18.209Z,102051.69
2022-12-18T01:07:46.272Z,102057.20
2022-12-18T01:10:14.712Z,102062.23
2022-12-18T01:12:42.723Z,102066.74
2022-12-18T01:15:13.996Z,102067.64
2022-12-18T01:17:42.560Z,102072.83
2022-12-18T01:20:13.190Z,102074.23
2022-12-18T01:22:41.436Z,102073.54
2022-12-18T01:25:09.860Z,102076.83
2022-12-18T01:27:38.037Z,102075.95
2022-12-18T01:30:06.775Z,102076.98
2022-12-18T01:32:34.687Z,102078.02
2022-12-18T01:35:04.804Z,102061.91
2022-12-18T01:37:32.950Z,102081.66
2022-12-18T01:40:01.041Z,102083.05
2022-12-18T01:42:29.472Z,102083.75
2022-12-18T01:45:06.027Z,102089.83
2022-12-18T01:47:50.872Z,102093.48
2022-12-18T01:50:23.958Z,102098.65
2022-12-18T01:52:59.445Z,102102.98
2022-12-18T01:55:32.019Z,102108.17
2022-12-18T01:58:01.701Z,102114.89
2022-12-18T02:00:30.475Z,102117.48
2022-12-18T02:02:58.636Z,102097.87
2022-12-18T02:05:48.318Z,102121.63
2022-12-18T02:08:25.896Z,102126.48
2022-12-18T02:11:23.363Z,102133.94
2022-12-18T02:14:21.740Z,102139.33
2022-12-18T02:16:57.321Z,102145.55
2022-12-18T02:19:45.734Z,102152.30
2022-12-18T02:22:30.913Z,102151.06
2022-12-18T02:25:17.471Z,102163.00
2022-12-18T02:27:50.303Z,102165.05
2022-12-18T02:30:20.215Z,102163.66
2022-12-18T02:32:54.624Z,102171.27
2022-12-18T02:35:30.519Z,102153.92
2022-12-18T02:38:00.213Z,102164.86
2022-12-18T02:40:31.504Z,102170.61
2022-12-18T02:43:11.686Z,102177.70
2022-12-18T02:45:55.916Z,102169.70
2022-12-18T02:48:29.853Z,102188.23
2022-12-18T02:51:24.700Z,102178.46
2022-12-18T02:54:03.871Z,102192.84
2022-12-18T02:56:40.040Z,102197.31
2022-12-18T02:59:16.698Z,102197.66
2022-12-18T03:02:03.082Z,102201.13
2022-12-18T03:04:49.876Z,102206.33
2022-12-18T03:07:39.115Z,102208.95
2022-12-18T03:10:14.758Z,102214.52
2022-12-18T03:12:51.411Z,102222.88
2022-12-18T03:15:31.872Z,102234.83
2022-12-18T03:18:24.400Z,102233.80
2022-12-18T03:20:57.095Z,102240.53
2022-12-18T03:23:29.360Z,102243.28
2022-12-18T03:26:07.163Z,102245.84
2022-12-18T03:28:43.219Z,102243.90
2022-12-18T03:31:15.329Z,102245.61
2022-12-18T03:33:55.471Z,102245.64
2022-12-18T03:36:28.064Z,102243.59
2022-12-18T03:38:56.153Z,102243.77
2022-12-18T03:41:34.813Z,102240.66
2022-12-18T03:44:51.132Z,102248.09
2022-12-18T03:47:45.515Z,102255.67
2022-12-18T03:50:20.991Z,102258.59
2022-12-18T03:53:38.728Z,102248.47
2022-12-18T03:56:09.724Z,102266.84
2022-12-18T03:58:43.028Z,102270.77
2022-12-18T04:01:32.305Z,102270.98
2022-12-18T04:04:03.324Z,102270.83
2022-12-18T04:06:37.026Z,102274.30
2022-12-18T04:09:06.181Z,102278.48
2022-12-18T04:11:37.286Z,102284.02
2022-12-18T04:14:07.340Z,102287.13
2022-12-18T04:16:35.745Z,102297.47
2022-12-18T04:19:06.189Z,102296.42
2022-12-18T04:21:39.534Z,102300.40
2022-12-18T04:24:07.963Z,102302.98
2022-12-18T04:26:36.586Z,102305.19
2022-12-18T04:29:31.299Z,102314.34
2022-12-18T04:31:59.344Z,102319.53
2022-12-18T04:34:27.666Z,102321.95
2022-12-18T04:36:56.182Z,102330.41
2022-12-18T04:39:25.333Z,102336.31
2022-12-18T04:41:55.484Z,102333.02
2022-12-18T04:44:23.975Z,102335.30
2022-12-18T04:46:51.914Z,102339.28
2022-12-18T04:49:20.280Z,102344.30
2022-12-18T04:51:48.580Z,102350.54
2022-12-18T04:54:17.083Z,102357.77
2022-12-18T04:56:44.944Z,102357.77
2022-12-18T04:59:13.237Z,102351.88
2022-12-18T05:01:41.420Z,102359.80
2022-12-18T05:04:10.027Z,102358.75
2022-12-18T05:06:38.464Z,102363.20
2022-12-18T05:09:06.540Z,102371.49
2022-12-18T05:11:34.701Z,102376.66
2022-12-18T05:14:03.200Z,102383.20
2022-12-18T05:16:31.248Z,102388.56
2022-12-18T05:18:59.077Z,102390.84
2022-12-18T05:21:27.641Z,102386.54
2022-12-18T05:23:55.542Z,102393.49
2022-12-18T05:26:24.252Z,102399.40
2022-12-18T05:28:52.744Z,102400.09
2022-12-18T05:31:20.764Z,102394.50
2022-12-18T05:33:48.685Z,102382.28
2022-12-18T05:36:17.448Z,102398.56
2022-12-18T05:38:45.294Z,102404.08
2022-12-18T05:41:13.173Z,102408.02
2022-12-18T05:43:42.632Z,102404.52
2022-12-18T05:46:16.254Z,102409.71
2022-12-18T05:48:45.862Z,102414.55
2022-12-18T05:51:19.251Z,102415.75
2022-12-18T05:53:48.081Z,102414.17
2022-12-18T05:56:20.275Z,102421.45
2022-12-18T05:58:52.052Z,102424.76
2022-12-18T06:01:23.116Z,102425.98
2022-12-18T06:03:51.508Z,102429.27
2022-12-18T06:06:23.863Z,102434.30
2022-12-18T06:08:52.391Z,102442.97
2022-12-18T06:11:23.829Z,102447.47
2022-12-18T06:13:58.138Z,102451.44
2022-12-18T06:16:28.342Z,102463.34
2022-12-18T06:19:01.104Z,102469.67
2022-12-18T06:21:30.846Z,102470.48
2022-12-18T06:24:00.652Z,102469.91
2022-12-18T06:26:28.877Z,102472.45
2022-12-18T06:28:57.378Z,102484.00
2022-12-18T06:31:26.734Z,102483.10
2022-12-18T06:33:55.025Z,102484.48
2022-12-18T06:36:23.362Z,102495.36
2022-12-18T06:38:51.250Z,102502.39
2022-12-18T06:41:21.408Z,102490.19
2022-12-18T06:43:49.989Z,102507.55
2022-12-18T06:46:17.899Z,102512.39
2022-12-18T06:48:50.000Z,102514.98
2022-12-18T06:51:19.919Z,102518.11
2022-12-18T06:53:47.862Z,102523.16
2022-12-18T06:56:15.781Z,102526.87
2022-12-18T06:58:43.921Z,102527.80
2022-12-18T07:01:13.060Z,102530.95
2022-12-18T07:03:43.566Z,102531.48
2022-12-18T07:06:17.541Z,102537.38
2022-12-18T07:08:46.659Z,102535.14
2022-12-18T07:11:15.804Z,102523.09
2022-12-18T07:13:43.952Z,102541.52
2022-12-18T07:16:20.804Z,102544.80
2022-12-18T07:18:50.531Z,102552.02
2022-12-18T07:21:20.772Z,102551.32
2022-12-18T07:23:49.475Z,102560.31
2022-12-18T07:26:21.407Z,102560.30
2022-12-18T07:28:50.059Z,102567.03
2022-12-18T07:31:22.102Z,102572.00
2022-12-18T07:33:51.608Z,102570.57
2022-12-18T07:36:20.820Z,102573.09
2022-12-18T07:38:50.322Z,102579.60
2022-12-18T07:41:19.767Z,102583.35
2022-12-18T07:43:48.346Z,102582.96
2022-12-18T07:46:17.846Z,102587.09
2022-12-18T07:48:49.340Z,102595.92
2022-12-18T07:51:19.765Z,102601.10
2022-12-18T07:53:51.304Z,102603.89
2022-12-18T07:56:30.099Z,102608.03
2022-12-18T07:59:00.287Z,102612.71
2022-12-18T08:01:28.711Z,102616.20
2022-12-18T08:03:58.396Z,102620.04
2022-12-18T08:06:27.184Z,102628.55
2022-12-18T08:08:56.786Z,102637.22
2022-12-18T08:11:26.888Z,102641.20
2022-12-18T08:13:55.056Z,102644.38
2022-12-18T08:16:24.911Z,102648.58
2022-12-18T08:18:54.243Z,102649.47
2022-12-18T08:21:25.267Z,102651.58
2022-12-18T08:23:55.559Z,102652.13
2022-12-18T08:26:24.379Z,102652.70
2022-12-18T08:28:54.766Z,102656.73
2022-12-18T08:31:23.649Z,102663.49
2022-12-18T08:33:54.473Z,102658.13
2022-12-18T08:36:24.921Z,102664.17
2022-12-18T08:38:53.919Z,102669.14
2022-12-18T08:41:22.644Z,102676.91
2022-12-18T08:44:09.976Z,102672.02
2022-12-18T08:46:43.385Z,102673.35
2022-12-18T08:49:13.048Z,102672.48
2022-12-18T08:51:41.460Z,102677.02
2022-12-18T08:54:13.894Z,102677.14
2022-12-18T08:56:42.268Z,102680.29
2022-12-18T08:59:15.813Z,102679.77
2022-12-18T09:01:48.532Z,102687.09
2022-12-18T09:04:16.667Z,102688.85
2022-12-18T09:06:44.647Z,102689.92
2022-12-18T09:09:13.073Z,102690.50
2022-12-18T09:11:41.016Z,102696.54
2022-12-18T09:14:10.982Z,102702.40
2022-12-18T09:16:39.382Z,102688.80
2022-12-18T09:19:07.430Z,102702.92
2022-12-18T09:21:37.211Z,102709.52
2022-12-18T09:24:09.101Z,102710.25
2022-12-18T09:26:37.991Z,102715.51
2022-12-18T09:29:08.586Z,102712.10
2022-12-18T09:31:38.017Z,102710.60
2022-12-18T09:34:07.110Z,102707.00
2022-12-18T09:36:35.375Z,102703.93
2022-12-18T09:39:08.085Z,102702.59
2022-12-18T09:41:48.627Z,102701.59
2022-12-18T09:44:30.962Z,102690.63
2022-12-18T09:47:10.669Z,102705.14
2022-12-18T09:49:44.042Z,102712.97
2022-12-18T09:52:41.089Z,102710.24
2022-12-18T09:55:42.122Z,102700.16
2022-12-18T09:58:30.243Z,102722.31
2022-12-18T10:00:58.319Z,102727.20
2022-12-18T10:03:27.765Z,102734.89
2022-12-18T10:06:14.888Z,102731.46
2022-12-18T10:09:01.793Z,102733.23
2022-12-18T10:11:35.868Z,102734.67
2022-12-18T10:14:31.793Z,102730.21
2022-12-18T10:17:26.253Z,102729.76
2022-12-18T10:20:00.707Z,102719.03
2022-12-18T10:22:43.238Z,102717.15
2022-12-18T10:25:36.319Z,102716.27
2022-12-18T10:28:19.051Z,102715.74
2022-12-18T10:30:47.766Z,102714.90
2022-12-18T10:33:22.296Z,102719.11
2022-12-18T10:35:52.116Z,102722.70
2022-12-18T10:38:20.376Z,102721.41
2022-12-18T10:40:55.538Z,102718.94
2022-12-18T10:43:35.002Z,102713.10
2022-12-18T10:46:06.794Z,102715.91
2022-12-18T10:48:43.382Z,102717.61
2022-12-18T10:51:22.200Z,102715.98
2022-12-18T10:54:30.542Z,102722.00
2022-12-18T10:57:29.591Z,102717.25
2022-12-18T11:00:02.051Z,102719.61
2022-12-18T11:02:38.980Z,102726.33
2022-12-18T11:05:38.145Z,102731.02
2022-12-18T11:08:07.217Z,102713.42
2022-12-18T11:10:39.032Z,102725.56
2022-12-18T11:13:26.145Z,102709.42
2022-12-18T11:15:54.424Z,102721.84
2022-12-18T11:18:33.784Z,102703.87
2022-12-18T11:21:10.991Z,102721.86
2022-12-18T11:23:55.034Z,102718.75
2022-12-18T11:26:36.964Z,102719.23
2022-12-18T11:29:24.893Z,102723.73
2022-12-18T11:31:57.076Z,102724.07
2022-12-18T11:34:33.093Z,102724.02
2022-12-18T11:37:04.104Z,102729.25
2022-12-18T11:39:37.875Z,102728.92
2022-12-18T11:42:25.553Z,102732.74
2022-12-18T11:45:02.533Z,102734.52
2022-12-18T11:47:43.322Z,102732.25
2022-12-18T11:50:19.690Z,102733.27
2022-12-18T11:52:51.499Z,102733.00
2022-12-18T11:55:38.191Z,102742.83
2022-12-18T11:58:34.097Z,102748.47
2022-12-18T12:01:24.353Z,102747.52
2022-12-18T12:04:17.039Z,102732.24
2022-12-18T12:07:03.599Z,102743.72
2022-12-18T12:10:04.970Z,102742.83
2022-12-18T12:12:48.999Z,102752.71
2022-12-18T12:15:26.648Z,102751.50
2022-12-18T12:18:45.890Z,102752.21
2022-12-18T12:21:55.851Z,102752.22
2022-12-18T12:24:48.183Z,102749.85
2022-12-18T12:27:29.539Z,102750.93
2022-12-18T12:30:30.732Z,102751.95
2022-12-18T12:33:16.962Z,102755.02
2022-12-18T12:36:07.808Z,102774.05
2022-12-18T12:38:49.815Z,102772.46
2022-12-18T12:41:43.755Z,102761.43
2022-12-18T12:44:27.764Z,102783.33
2022-12-18T12:47:00.425Z,102784.83
2022-12-18T12:49:37.644Z,102791.70
2022-12-18T12:52:15.573Z,102804.64
2022-12-18T12:54:45.783Z,102808.55
2022-12-18T12:57:23.210Z,102811.60
2022-12-18T12:59:58.271Z,102817.42
2022-12-18T13:02:58.007Z,102822.90
2022-12-18T13:05:57.502Z,102825.27
2022-12-18T13:08:33.398Z,102826.42
2022-12-18T13:11:22.786Z,102831.41
2022-12-18T13:13:53.633Z,102829.30
2022-12-18T13:16:25.401Z,102830.00
2022-12-18T13:18:55.654Z,102826.23
2022-12-18T13:21:30.321Z,102831.09
2022-12-18T13:24:17.059Z,102836.81
2022-12-18T13:26:44.848Z,102836.51
2022-12-18T13:29:43.826Z,102832.91
2022-12-18T13:32:25.046Z,102831.42
2022-12-18T13:35:19.710Z,102834.23
2022-12-18T13:37:56.004Z,102844.90
2022-12-18T13:40:39.553Z,102848.09
2022-12-18T13:43:22.867Z,102846.57
2022-12-18T13:46:17.785Z,102842.95
2022-12-18T13:49:07.715Z,102843.52
2022-12-18T13:51:36.908Z,102844.45
2022-12-18T13:54:33.716Z,102845.34
2022-12-18T13:57:03.280Z,102851.91
2022-12-18T13:59:37.553Z,102848.80
2022-12-18T14:02:23.111Z,102848.06
2022-12-18T14:04:52.988Z,102849.42
2022-12-18T14:07:26.712Z,102859.28
2022-12-18T14:10:18.793Z,102843.40
2022-12-18T14:13:00.881Z,102858.77
2022-12-18T14:15:35.041Z,102852.86
2022-12-18T14:18:23.898Z,102857.55
2022-12-18T14:20:57.949Z,102853.79
2022-12-18T14:23:43.531Z,102851.44
2022-12-18T14:26:26.540Z,102852.60
2022-12-18T14:28:55.763Z,102864.54
2022-12-18T14:31:29.663Z,102867.97
2022-12-18T14:33:57.847Z,102869.30
2022-12-18T14:36:28.529Z,102870.61
2022-12-18T14:38:59.382Z,102869.54
2022-12-18T14:41:28.870Z,102870.19
2022-12-18T14:44:07.450Z,102880.35
2022-12-18T14:46:41.058Z,102885.15
2022-12-18T14:49:32.600Z,102891.89
2022-12-18T14:52:20.962Z,102891.35
2022-12-18T14:54:49.859Z,102887.70
2022-12-18T14:57:36.709Z,102891.28
2022-12-18T15:00:16.265Z,102892.61
2022-12-18T15:02:46.598Z,102879.09
2022-12-18T15:05:14.520Z,102897.13
2022-12-18T15:07:44.773Z,102894.36
2022-12-18T15:10:23.298Z,102888.32
2022-12-18T15:12:57.797Z,102885.83
2022-12-18T15:15:35.500Z,102893.13
2022-12-18T15:18:13.723Z,102892.70
2022-12-18T15:21:12.418Z,102891.90
2022-12-18T15:23:54.462Z,102896.62
2022-12-18T15:26:23.578Z,102898.30
2022-12-18T15:28:54.014Z,102889.01
2022-12-18T15:31:33.708Z,102901.45
2022-12-18T15:34:12.495Z,102893.98
2022-12-18T15:36:41.357Z,102909.90
2022-12-18T15:39:13.275Z,102908.50
2022-12-18T15:42:02.089Z,102915.24
2022-12-18T15:44:30.714Z,102920.61
2022-12-18T15:46:58.920Z,102918.31
2022-12-18T15:49:27.084Z,102916.56
2022-12-18T15:52:01.242Z,102920.41
2022-12-18T15:54:48.369Z,102917.55
2022-12-18T15:57:25.841Z,102920.05
2022-12-18T15:59:59.613Z,102921.20
2022-12-18T16:02:29.787Z,102918.29
2022-12-18T16:04:58.413Z,102920.77
2022-12-18T16:07:29.165Z,102918.92
2022-12-18T16:10:00.300Z,102915.69
2022-12-18T16:12:30.486Z,102901.16
2022-12-18T16:14:58.696Z,102909.40
2022-12-18T16:17:27.119Z,102884.86
2022-12-18T16:19:55.353Z,102920.59
2022-12-18T16:22:30.612Z,102925.73
2022-12-18T16:24:59.097Z,102930.50
2022-12-18T16:27:27.232Z,102930.58
2022-12-18T16:29:55.381Z,102928.04
2022-12-18T16:32:24.502Z,102935.64
2022-12-18T16:34:52.788Z,102937.54
2022-12-18T16:37:31.272Z,102932.93
2022-12-18T16:39:59.755Z,102940.06
2022-12-18T16:42:27.912Z,102930.61
2022-12-18T16:44:58.004Z,102950.37
2022-12-18T16:47:26.353Z,102959.59
2022-12-18T16:49:54.484Z,102966.20
2022-12-18T16:52:22.735Z,102969.84
2022-12-18T16:54:50.942Z,102968.89
2022-12-18T16:57:21.115Z,102962.23
2022-12-18T16:59:53.344Z,102962.56
2022-12-18T17:02:25.774Z,102962.23
2022-12-18T17:05:00.385Z,102961.12
2022-12-18T17:07:28.551Z,102966.00
2022-12-18T17:09:57.092Z,102965.86
2022-12-18T17:12:25.265Z,102963.69
2022-12-18T17:14:53.285Z,102960.90
2022-12-18T17:17:23.048Z,102928.10
2022-12-18T17:19:52.856Z,102950.30
2022-12-18T17:22:23.268Z,102952.06
2022-12-18T17:24:51.594Z,102956.84
2022-12-18T17:27:19.757Z,102965.50
2022-12-18T17:29:48.963Z,102970.42
2022-12-18T17:32:18.483Z,102974.58
2022-12-18T17:34:47.137Z,102979.77
2022-12-18T17:37:15.748Z,102979.78
2022-12-18T17:39:43.789Z,102984.29
2022-12-18T17:42:15.684Z,102970.61
2022-12-18T17:44:45.483Z,102988.23
2022-12-18T17:47:15.531Z,102990.36
2022-12-18T17:49:43.499Z,102994.80
2022-12-18T17:52:11.445Z,103000.62
2022-12-18T17:54:42.349Z,102998.21
2022-12-18T17:57:10.669Z,103002.48
2022-12-18T17:59:38.862Z,103000.16
2022-12-18T18:02:07.537Z,102998.17
2022-12-18T18:04:36.447Z,102999.14
2022-12-18T18:07:04.536Z,102999.58
2022-12-18T18:09:32.889Z,102999.84
2022-12-18T18:12:19.289Z,103000.98
2022-12-18T18:14:47.997Z,103006.61
2022-12-18T18:17:15.985Z,103001.73
2022-12-18T18:19:47.431Z,103000.48
2022-12-18T18:22:19.610Z,102992.47
2022-12-18T18:24:48.193Z,102986.52
2022-12-18T18:27:16.423Z,102979.64
2022-12-18T18:29:45.089Z,102976.42
2022-12-18T18:32:12.907Z,102971.25
2022-12-18T18:34:40.945Z,102969.59
2022-12-18T18:37:10.854Z,102971.25
2022-12-18T18:39:38.853Z,102972.20
2022-12-18T18:42:07.075Z,102966.05
2022-12-18T18:44:35.573Z,102961.30
2022-12-18T18:47:05.628Z,102971.70
2022-12-18T18:49:38.057Z,102986.89
2022-12-18T18:52:07.498Z,102994.27
2022-12-18T18:54:35.572Z,102991.69
2022-12-18T18:57:20.465Z,102988.41
2022-12-18T18:59:51.656Z,102984.68
2022-12-18T19:02:20.040Z,102996.11
2022-12-18T19:04:48.110Z,102992.99
2022-12-18T19:07:29.346Z,102985.56
2022-12-18T19:10:04.594Z,102981.19
2022-12-18T19:12:54.903Z,102979.98
2022-12-18T19:15:23.598Z,102983.55
2022-12-18T19:17:51.478Z,102981.60
2022-12-18T19:20:19.653Z,102989.09
2022-12-18T19:22:55.282Z,102999.36
2022-12-18T19:25:37.163Z,102996.63
2022-12-18T19:28:15.818Z,102991.39
2022-12-18T19:30:58.657Z,102996.19
2022-12-18T19:33:45.928Z,102998.81
2022-12-18T19:36:17.727Z,103002.64
2022-12-18T19:38:46.894Z,103000.48
2022-12-18T19:41:16.295Z,103004.92
2022-12-18T19:43:45.026Z,103005.88
2022-12-18T19:46:16.327Z,102998.60
2022-12-18T19:48:45.365Z,103001.14
2022-12-18T19:51:19.678Z,103007.77
2022-12-18T19:53:48.251Z,103017.90
2022-12-18T19:56:19.950Z,103013.77
2022-12-18T19:58:49.162Z,103005.13
2022-12-18T20:01:20.243Z,102993.95
2022-12-18T20:03:52.200Z,102991.64
2022-12-18T20:06:25.081Z,102992.13
2022-12-18T20:08:57.969Z,102991.48
2022-12-18T20:11:33.897Z,102997.32
2022-12-18T20:14:07.027Z,102995.80
2022-12-18T20:16:35.787Z,102987.69
2022-12-18T20:19:03.974Z,102986.37
2022-12-18T20:21:32.101Z,102986.74
2022-12-18T20:24:01.547Z,102995.08
2022-12-18T20:26:29.706Z,103004.65
2022-12-18T20:28:58.433Z,103008.69
2022-12-18T20:31:26.870Z,103012.66
2022-12-18T20:34:00.173Z,103023.29
2022-12-18T20:36:30.391Z,103025.49
2022-12-18T20:39:01.679Z,103039.46
2022-12-18T20:41:38.099Z,103046.90
2022-12-18T20:44:22.236Z,103056.27
2022-12-18T20:46:54.708Z,103052.70
2022-12-18T20:49:24.979Z,103048.54
2022-12-18T20:51:56.449Z,103049.27
2022-12-18T20:54:29.256Z,103053.34
2022-12-18T20:56:57.353Z,103031.15
2022-12-18T20:59:26.085Z,103039.05
2022-12-18T21:01:54.982Z,103042.48
2022-12-18T21:04:24.442Z,103047.61
2022-12-18T21:07:00.524Z,103046.48
2022-12-18T21:09:37.436Z,103041.75
2022-12-18T21:12:40.267Z,103040.03
2022-12-18T21:15:12.192Z,103040.19
2022-12-18T21:17:44.049Z,103041.74
2022-12-18T21:20:17.362Z,103040.69
2022-12-18T21:22:47.112Z,103033.60
2022-12-18T21:25:15.255Z,103030.42
2022-12-18T21:27:43.106Z,102994.73
2022-12-18T21:30:11.810Z,103021.27
2022-12-18T21:32:40.113Z,103022.54
2022-12-18T21:35:08.464Z,103000.65
2022-12-18T21:37:36.480Z,103007.67
2022-12-18T21:40:06.238Z,102999.85
2022-12-18T21:42:52.973Z,102994.67
2022-12-18T21:45:21.253Z,102986.03
2022-12-18T21:47:49.209Z,102979.58
2022-12-18T21:50:17.182Z,102975.77
2022-12-18T21:52:45.463Z,102966.43
2022-12-18T21:55:13.283Z,102948.45
2022-12-18T21:57:41.217Z,102942.54
2022-12-18T22:00:19.002Z,102934.04
2022-12-18T22:03:07.385Z,102933.48
2022-12-18T22:05:37.682Z,102938.42
2022-12-18T22:08:07.055Z,102942.75
2022-12-18T22:10:36.040Z,102948.70
2022-12-18T22:13:05.809Z,102949.10
2022-12-18T22:15:33.760Z,102942.06
2022-12-18T22:18:02.158Z,102941.40
2022-12-18T22:20:30.768Z,102946.42
2022-12-18T22:23:04.258Z,102952.63
2022-12-18T22:25:37.273Z,102952.39
2022-12-18T22:28:26.504Z,102949.52
2022-12-18T22:30:59.706Z,102932.80
2022-12-18T22:33:28.526Z,102936.73
2022-12-18T22:35:56.668Z,102929.61
2022-12-18T22:38:26.364Z,102934.45
2022-12-18T22:40:54.942Z,102941.55
2022-12-18T22:43:22.753Z,102942.26
2022-12-18T22:45:51.159Z,102942.10
2022-12-18T22:48:19.372Z,102932.77
2022-12-18T22:50:47.275Z,102929.08
2022-12-18T22:53:17.679Z,102928.17
2022-12-18T22:55:45.602Z,102924.73
2022-12-18T22:58:13.558Z,102919.55
2022-12-18T23:00:42.030Z,102910.05
2022-12-18T23:03:10.366Z,102911.77
2022-12-18T23:05:38.515Z,102912.64
2022-12-18T23:08:06.511Z,102919.40
2022-12-18T23:10:37.979Z,102920.04
2022-12-18T23:13:05.895Z,102916.39
2022-12-18T23:15:34.438Z,102909.41
2022-12-18T23:18:02.323Z,102904.47
2022-12-18T23:20:30.738Z,102904.72
2022-12-18T23:22:58.973Z,102906.96
2022-12-18T23:25:26.915Z,102890.89
2022-12-18T23:27:54.919Z,102904.56
2022-12-18T23:30:22.988Z,102901.41
2022-12-18T23:32:51.179Z,102899.87
2022-12-18T23:35:19.515Z,102905.20
2022-12-18T23:38:04.471Z,102904.18
2022-12-18T23:40:32.703Z,102907.36
2022-12-18T23:43:00.995Z,102915.92
2022-12-18T23:45:28.911Z,102914.64
2022-12-18T23:47:57.270Z,102896.73
2022-12-18T23:50:29.727Z,102909.05
2022-12-18T23:53:05.186Z,102904.38
2022-12-18T23:55:39.995Z,102905.36
2022-12-18T23:58:16.084Z,102896.59
